createdAt,value
2022-12-16T00:01:19.540Z,98201.81
2022-12-16T00:03:52.040Z,98192.03
2022-12-16T00:06:24.575Z,98188.75
2022-12-16T00:08:55.033Z,98192.66
2022-12-16T00:11:24.111Z,98186.50
2022-12-16T00:13:53.031Z,98192.09
2022-12-16T00:16:23.913Z,98189.47
2022-12-16T00:18:52.905Z,98192.34
2022-12-16T00:21:28.680Z,98186.59
2022-12-16T00:23:58.181Z,98186.81
2022-12-16T00:26:27.439Z,98191.72
2022-12-16T00:28:56.209Z,98194.38
2022-12-16T00:31:25.459Z,98189.31
2022-12-16T00:33:58.272Z,98187.22
2022-12-16T00:36:28.488Z,98187.22
2022-12-16T00:38:57.326Z,98187.50
2022-12-16T00:41:26.134Z,98192.59
2022-12-16T00:43:55.016Z,98191.28
2022-12-16T00:46:23.858Z,98200.28
2022-12-16T00:48:52.833Z,98204.34
2022-12-16T00:51:24.651Z,98204.88
2022-12-16T00:53:55.450Z,98197.38
2022-12-16T00:56:25.264Z,98195.41
2022-12-16T00:58:54.136Z,98187.09
2022-12-16T01:01:23.811Z,98184.31
2022-12-16T01:03:58.517Z,98188.84
2022-12-16T01:06:27.643Z,98191.97
2022-12-16T01:08:58.633Z,98197.69
2022-12-16T01:11:27.420Z,98196.06
2022-12-16T01:13:56.159Z,98206.84
2022-12-16T01:16:25.246Z,98204.88
2022-12-16T01:18:56.334Z,98194.28
2022-12-16T01:21:25.613Z,98198.69
2022-12-16T01:23:56.135Z,98193.13
2022-12-16T01:26:25.360Z,98189.22
2022-12-16T01:28:54.225Z,98194.47
2022-12-16T01:31:24.698Z,98203.28
2022-12-16T01:33:53.765Z,98212.72
2022-12-16T01:36:22.900Z,98206.84
2022-12-16T01:38:51.897Z,98198.38
2022-12-16T01:41:22.805Z,98194.13
2022-12-16T01:43:51.724Z,98198.56
2022-12-16T01:46:26.098Z,98192.03
2022-12-16T01:49:00.993Z,98187.31
2022-12-16T01:51:36.936Z,98188.59
2022-12-16T01:54:11.987Z,98182.41
2022-12-16T01:56:52.608Z,98177.97
2022-12-16T01:59:24.289Z,98169.31
2022-12-16T02:01:53.864Z,98172.91
2022-12-16T02:04:34.906Z,98180.41
2022-12-16T02:07:03.748Z,98171.28
2022-12-16T02:09:32.632Z,98169.63
2022-12-16T02:12:24.461Z,98162.59
2022-12-16T02:15:24.545Z,98173.25
2022-12-16T02:18:07.185Z,98168.34
2022-12-16T02:21:16.208Z,98171.13
2022-12-16T02:24:27.371Z,98166.72
2022-12-16T02:27:50.706Z,98171.13
2022-12-16T02:31:02.750Z,98162.31
2022-12-16T02:33:58.969Z,98159.88
2022-12-16T02:36:48.738Z,98160.19
2022-12-16T02:39:26.778Z,98152.81
2022-12-16T02:42:07.524Z,98155.13
2022-12-16T02:44:56.266Z,98162.63
2022-12-16T02:47:27.080Z,98152.66
2022-12-16T02:49:57.813Z,98151.03
2022-12-16T02:52:31.164Z,98144.34
2022-12-16T02:55:03.703Z,98141.88
2022-12-16T02:58:06.148Z,98143.84
2022-12-16T03:00:53.627Z,98129.59
2022-12-16T03:03:32.395Z,98126.16
2022-12-16T03:06:05.224Z,98125.19
2022-12-16T03:08:41.084Z,98139.25
2022-12-16T03:11:10.371Z,98124.53
2022-12-16T03:13:46.278Z,98124.22
2022-12-16T03:16:20.421Z,98124.19
2022-12-16T03:18:59.163Z,98116.69
2022-12-16T03:21:35.828Z,98112.44
2022-12-16T03:24:10.730Z,98116.84
2022-12-16T03:26:53.896Z,98119.94
2022-12-16T03:29:34.835Z,98117.97
2022-12-16T03:32:10.721Z,98117.97
2022-12-16T03:34:47.668Z,98115.03
2022-12-16T03:37:17.494Z,98114.38
2022-12-16T03:39:53.205Z,98117.66
2022-12-16T03:42:22.171Z,98120.25
2022-12-16T03:44:52.304Z,98124.53
2022-12-16T03:47:24.099Z,98125.81
2022-12-16T03:49:54.810Z,98132.03
2022-12-16T03:52:28.801Z,98128.44
2022-12-16T03:55:23.365Z,98136.94
2022-12-16T03:57:52.305Z,98126.63
2022-12-16T04:00:22.126Z,98126.63
2022-12-16T04:02:51.602Z,98129.09
2022-12-16T04:05:21.956Z,98136.75
2022-12-16T04:07:50.923Z,98140.53
2022-12-16T04:10:40.757Z,98139.22
2022-12-16T04:13:28.346Z,98137.94
2022-12-16T04:16:15.149Z,98141.50
2022-12-16T04:19:02.097Z,98144.13
2022-12-16T04:21:49.648Z,98141.00
2022-12-16T04:24:23.994Z,98143.28
2022-12-16T04:27:15.335Z,98143.94
2022-12-16T04:30:02.475Z,98143.97
2022-12-16T04:32:53.406Z,98150.31
2022-12-16T04:35:39.527Z,98149.66
2022-12-16T04:38:27.246Z,98147.38
2022-12-16T04:41:14.198Z,98152.91
2022-12-16T04:44:01.034Z,98142.94
2022-12-16T04:46:47.564Z,98151.44
2022-12-16T04:49:33.984Z,98158.16
2022-12-16T04:52:20.696Z,98155.53
2022-12-16T04:55:08.650Z,98164.03
2022-12-16T04:57:56.814Z,98167.28
2022-12-16T05:00:43.472Z,98173.06
2022-12-16T05:03:31.566Z,98177.47
2022-12-16T05:06:19.271Z,98179.31
2022-12-16T05:09:05.983Z,98188.31
2022-12-16T05:11:54.381Z,98181.56
2022-12-16T05:14:41.021Z,98189.13
2022-12-16T05:17:45.300Z,98194.50
2022-12-16T05:20:33.972Z,98189.59
2022-12-16T05:23:27.721Z,98199.25
2022-12-16T05:26:14.028Z,98197.13
2022-12-16T05:29:04.047Z,98194.66
2022-12-16T05:32:05.206Z,98192.22
2022-12-16T05:34:52.816Z,98194.50
2022-12-16T05:37:42.354Z,98200.06
2022-12-16T05:40:33.903Z,98196.63
2022-12-16T05:43:21.074Z,98186.16
2022-12-16T05:46:10.105Z,98192.88
2022-12-16T05:48:56.166Z,98188.09
2022-12-16T05:51:44.256Z,98193.50
2022-12-16T05:54:30.254Z,98195.63
2022-12-16T05:57:16.446Z,98197.13
2022-12-16T06:00:02.431Z,98195.97
2022-12-16T06:02:58.927Z,98207.28
2022-12-16T06:05:45.087Z,98211.50
2022-12-16T06:08:31.455Z,98209.53
2022-12-16T06:11:17.381Z,98217.75
2022-12-16T06:14:03.211Z,98222.47
2022-12-16T06:16:49.685Z,98219.38
2022-12-16T06:19:37.089Z,98230.19
2022-12-16T06:22:23.446Z,98232.47
2022-12-16T06:25:09.870Z,98236.56
2022-12-16T06:27:56.150Z,98243.13
2022-12-16T06:30:42.471Z,98243.13
2022-12-16T06:33:29.121Z,98249.00
2022-12-16T06:36:45.764Z,98250.47
2022-12-16T06:39:32.181Z,98248.34
2022-12-16T06:42:18.619Z,98253.91
2022-12-16T06:45:04.911Z,98257.69
2022-12-16T06:47:51.366Z,98260.59
2022-12-16T06:50:41.632Z,98271.72
2022-12-16T06:53:32.560Z,98271.25
2022-12-16T06:56:19.116Z,98280.25
2022-12-16T06:59:05.317Z,98283.53
2022-12-16T07:01:51.631Z,98288.75
2022-12-16T07:04:38.068Z,98291.38
2022-12-16T07:07:24.179Z,98299.06
2022-12-16T07:10:36.953Z,98299.41
2022-12-16T07:13:23.596Z,98309.06
2022-12-16T07:16:09.733Z,98313.00
2022-12-16T07:18:56.201Z,98316.09
2022-12-16T07:21:42.132Z,98317.25
2022-12-16T07:24:28.320Z,98318.38
2022-12-16T07:27:15.858Z,98323.47
2022-12-16T07:30:02.206Z,98330.84
2022-12-16T07:32:51.153Z,98340.81
2022-12-16T07:35:37.591Z,98344.41
2022-12-16T07:38:23.859Z,98341.66
2022-12-16T07:41:10.004Z,98345.25
2022-12-16T07:43:57.438Z,98358.84
2022-12-16T07:46:43.673Z,98357.88
2022-12-16T07:49:29.872Z,98357.84
2022-12-16T07:52:16.241Z,98359.81
2022-12-16T07:55:02.539Z,98360.63
2022-12-16T07:57:48.904Z,98362.28
2022-12-16T08:00:37.296Z,98368.63
2022-12-16T08:03:19.887Z,98364.72
2022-12-16T08:06:07.378Z,98366.03
2022-12-16T08:08:53.488Z,98371.75
2022-12-16T08:11:39.308Z,98367.81
2022-12-16T08:14:25.350Z,98366.69
2022-12-16T08:17:13.073Z,98361.09
2022-12-16T08:19:59.043Z,98372.88
2022-12-16T08:22:44.882Z,98376.16
2022-12-16T08:25:31.168Z,98384.66
2022-12-16T08:28:17.106Z,98388.28
2022-12-16T08:31:02.885Z,98382.72
2022-12-16T08:33:50.802Z,98382.03
2022-12-16T08:36:37.512Z,98389.41
2022-12-16T08:39:24.118Z,98389.25
2022-12-16T08:42:10.488Z,98389.56
2022-12-16T08:44:56.758Z,98388.28
2022-12-16T08:47:42.873Z,98395.16
2022-12-16T08:50:30.915Z,98409.25
2022-12-16T08:53:17.479Z,98413.16
2022-12-16T08:56:03.873Z,98406.78
2022-12-16T08:58:50.496Z,98409.22
2022-12-16T09:01:39.275Z,98408.75
2022-12-16T09:04:25.938Z,98413.19
2022-12-16T09:07:14.082Z,98419.88
2022-12-16T09:10:00.340Z,98419.06
2022-12-16T09:12:46.497Z,98428.25
2022-12-16T09:15:33.063Z,98437.75
2022-12-16T09:18:24.969Z,98435.78
2022-12-16T09:21:13.715Z,98443.13
2022-12-16T09:24:01.391Z,98442.84
2022-12-16T09:26:48.744Z,98450.19
2022-12-16T09:29:40.550Z,98448.84
2022-12-16T09:32:32.269Z,98458.41
2022-12-16T09:35:18.680Z,98461.00
2022-12-16T09:38:06.246Z,98458.03
2022-12-16T09:40:56.368Z,98468.22
2022-12-16T09:44:09.683Z,98469.19
2022-12-16T09:47:10.821Z,98467.69
2022-12-16T09:50:06.556Z,98472.91
2022-12-16T09:53:17.870Z,98476.03
2022-12-16T09:56:06.843Z,98472.09
2022-12-16T09:59:01.923Z,98477.31
2022-12-16T10:01:55.193Z,98480.22
2022-12-16T10:04:58.375Z,98492.38
2022-12-16T10:07:51.969Z,98494.69
2022-12-16T10:10:49.320Z,98485.19
2022-12-16T10:13:51.151Z,98481.19
2022-12-16T10:16:48.014Z,98480.13
2022-12-16T10:19:50.288Z,98487.00
2022-12-16T10:22:48.141Z,98489.88
2022-12-16T10:25:41.286Z,98486.81
2022-12-16T10:28:37.529Z,98497.59
2022-12-16T10:31:34.270Z,98492.16
2022-12-16T10:34:22.060Z,98498.94
2022-12-16T10:37:14.243Z,98502.94
2022-12-16T10:40:08.130Z,98497.75
2022-12-16T10:43:06.874Z,98497.75
2022-12-16T10:46:02.746Z,98498.28
2022-12-16T10:48:56.450Z,98498.75
2022-12-16T10:51:48.335Z,98510.59
2022-12-16T10:54:54.050Z,98498.19
2022-12-16T10:57:57.545Z,98510.09
2022-12-16T11:01:04.316Z,98517.13
2022-12-16T11:03:54.448Z,98512.38
2022-12-16T11:06:45.618Z,98509.63
2022-12-16T11:09:43.125Z,98511.97
2022-12-16T11:12:45.277Z,98514.09
2022-12-16T11:15:46.167Z,98516.91
2022-12-16T11:18:43.201Z,98522.94
2022-12-16T11:21:36.111Z,98524.25
2022-12-16T11:24:40.909Z,98511.81
2022-12-16T11:27:40.640Z,98512.78
2022-12-16T11:30:39.026Z,98511.78
2022-12-16T11:33:37.858Z,98518.69
2022-12-16T11:36:36.165Z,98520.31
2022-12-16T11:39:26.321Z,98517.03
2022-12-16T11:42:15.270Z,98530.66
2022-12-16T11:45:08.019Z,98531.00
2022-12-16T11:48:01.584Z,98537.38
2022-12-16T11:50:55.519Z,98539.97
2022-12-16T11:53:51.136Z,98539.81
2022-12-16T11:56:44.815Z,98545.88
2022-12-16T11:59:46.057Z,98543.06
2022-12-16T12:02:41.033Z,98547.53
2022-12-16T12:05:31.812Z,98545.72
2022-12-16T12:08:31.022Z,98543.88
2022-12-16T12:11:32.075Z,98549.50
2022-12-16T12:14:32.419Z,98551.09
2022-12-16T12:17:36.031Z,98557.66
2022-12-16T12:20:56.386Z,98566.91
2022-12-16T12:29:38.349Z,98559.84
2022-12-16T12:32:42.938Z,98568.88
2022-12-16T12:35:47.258Z,98566.59
2022-12-16T12:41:47.352Z,98570.69
2022-12-16T12:44:48.837Z,98574.00
2022-12-16T12:47:38.294Z,98574.13
2022-12-16T12:50:33.801Z,98575.09
2022-12-16T12:53:41.881Z,98587.91
2022-12-16T12:56:46.950Z,98594.50
2022-12-16T12:59:41.315Z,98595.81
2022-12-16T13:02:35.122Z,98600.75
2022-12-16T13:05:24.774Z,98596.81
2022-12-16T13:08:11.189Z,98598.44
2022-12-16T13:10:57.671Z,98602.03
2022-12-16T13:13:56.111Z,98609.59
2022-12-16T13:17:24.933Z,98615.81
2022-12-16T13:20:18.498Z,98616.66
2022-12-16T13:23:05.730Z,98620.75
2022-12-16T13:25:59.198Z,98617.16
2022-12-16T13:28:55.906Z,98623.03
2022-12-16T13:31:43.761Z,98626.97
2022-12-16T13:34:46.931Z,98637.94
2022-12-16T13:37:52.469Z,98637.50
2022-12-16T13:40:42.436Z,98643.38
2022-12-16T13:44:03.755Z,98639.09
2022-12-16T13:47:02.289Z,98646.00
2022-12-16T13:50:08.724Z,98657.47
2022-12-16T13:53:05.208Z,98662.41
2022-12-16T13:55:59.009Z,98669.31
2022-12-16T13:59:04.853Z,98670.78
2022-12-16T14:02:06.531Z,98674.06
2022-12-16T14:04:56.435Z,98682.75
2022-12-16T14:07:54.569Z,98681.44
2022-12-16T14:10:47.325Z,98694.56
2022-12-16T14:13:42.500Z,98696.03
2022-12-16T14:16:38.176Z,98706.34
2022-12-16T14:19:44.549Z,98697.78
2022-12-16T14:22:56.330Z,98712.53
2022-12-16T14:25:44.210Z,98713.34
2022-12-16T14:28:46.559Z,98719.44
2022-12-16T14:31:39.939Z,98734.16
2022-12-16T14:34:34.751Z,98721.91
2022-12-16T14:37:31.772Z,98731.41
2022-12-16T14:40:20.823Z,98735.66
2022-12-16T14:43:13.131Z,98749.09
2022-12-16T14:46:08.411Z,98749.59
2022-12-16T14:48:58.687Z,98760.66
2022-12-16T14:51:49.205Z,98753.25
2022-12-16T14:54:44.457Z,98758.38
2022-12-16T14:57:34.802Z,98762.69
2022-12-16T15:00:34.465Z,98762.00
2022-12-16T15:03:32.825Z,98765.94
2022-12-16T15:06:23.515Z,98770.50
2022-12-16T15:09:14.554Z,98771.84
2022-12-16T15:12:17.637Z,98781.00
2022-12-16T15:15:04.269Z,98781.81
2022-12-16T15:18:03.913Z,98784.19
2022-12-16T15:20:54.441Z,98792.00
2022-12-16T15:23:44.804Z,98793.47
2022-12-16T15:26:54.721Z,98798.09
2022-12-16T15:29:51.739Z,98804.97
2022-12-16T15:32:53.075Z,98812.03
2022-12-16T15:35:50.831Z,98814.84
2022-12-16T15:38:47.459Z,98819.31
2022-12-16T15:42:04.744Z,98827.53
2022-12-16T15:44:50.912Z,98834.09
2022-12-16T15:47:49.805Z,98835.91
2022-12-16T15:50:40.489Z,98838.03
2022-12-16T15:53:49.897Z,98848.84
2022-12-16T15:56:42.296Z,98847.88
2022-12-16T15:59:43.680Z,98856.00
2022-12-16T16:02:37.374Z,98866.06
2022-12-16T16:05:33.147Z,98862.06
2022-12-16T16:08:20.042Z,98859.00
2022-12-16T16:11:06.599Z,98865.75
2022-12-16T16:13:55.154Z,98869.94
2022-12-16T16:16:44.406Z,98874.84
2022-12-16T16:19:35.802Z,98872.75
2022-12-16T16:22:21.976Z,98874.72
2022-12-16T16:25:08.424Z,98874.56
2022-12-16T16:27:54.878Z,98877.47
2022-12-16T16:30:42.417Z,98880.47
2022-12-16T16:33:28.585Z,98877.72
2022-12-16T16:36:15.124Z,98878.81
2022-12-16T16:39:01.307Z,98885.72
2022-12-16T16:41:47.069Z,98878.72
2022-12-16T16:44:32.984Z,98888.91
2022-12-16T16:47:20.479Z,98889.41
2022-12-16T16:50:06.900Z,98895.34
2022-12-16T16:52:53.161Z,98893.31
2022-12-16T16:55:42.571Z,98893.81
2022-12-16T16:58:34.494Z,98902.88
2022-12-16T17:01:20.827Z,98906.41
2022-12-16T17:04:08.420Z,98906.53
2022-12-16T17:07:00.005Z,98910.22
2022-12-16T17:09:45.861Z,98917.38
2022-12-16T17:12:38.815Z,98917.09
2022-12-16T17:15:37.011Z,98927.50
2022-12-16T17:18:25.110Z,98925.94
2022-12-16T17:21:13.233Z,98924.81
2022-12-16T17:23:59.339Z,98927.25
2022-12-16T17:26:46.324Z,98929.41
2022-12-16T17:29:38.789Z,98944.59
2022-12-16T17:32:25.218Z,98940.94
2022-12-16T17:35:11.809Z,98952.56
2022-12-16T17:37:59.568Z,98951.31
2022-12-16T17:40:45.848Z,98953.25
2022-12-16T17:43:32.754Z,98957.28
2022-12-16T17:46:22.089Z,98958.03
2022-12-16T17:49:11.817Z,98958.03
2022-12-16T17:51:58.403Z,98963.88
2022-12-16T17:54:53.370Z,98966.56
2022-12-16T17:57:39.573Z,98970.22
2022-12-16T18:00:27.516Z,98980.34
2022-12-16T18:03:14.305Z,98985.59
2022-12-16T18:06:00.910Z,98992.78
2022-12-16T18:08:47.524Z,98992.78
2022-12-16T18:11:38.722Z,98989.50
2022-12-16T18:14:31.496Z,98987.53
2022-12-16T18:17:24.229Z,98992.19
2022-12-16T18:20:10.791Z,98988.97
2022-12-16T18:22:57.080Z,98990.31
2022-12-16T18:25:43.289Z,98996.06
2022-12-16T18:28:31.478Z,98998.53
2022-12-16T18:31:17.964Z,98999.59
2022-12-16T18:34:04.317Z,98993.53
2022-12-16T18:36:51.410Z,99007.59
2022-12-16T18:39:39.192Z,99001.53
2022-12-16T18:42:27.808Z,99007.00
2022-12-16T18:45:18.348Z,99013.31
2022-12-16T18:48:05.054Z,99015.44
2022-12-16T18:50:56.218Z,99010.06
2022-12-16T18:53:42.863Z,99018.66
2022-12-16T18:56:29.836Z,99010.22
2022-12-16T18:59:17.861Z,99018.19
2022-12-16T19:02:06.049Z,99020.84
2022-12-16T19:04:52.248Z,99021.22
2022-12-16T19:07:38.732Z,99020.09
2022-12-16T19:10:26.855Z,99024.31
2022-12-16T19:13:23.888Z,99022.13
2022-12-16T19:16:15.145Z,99021.84
2022-12-16T19:19:03.332Z,99024.78
2022-12-16T19:21:52.360Z,99026.34
2022-12-16T19:24:44.381Z,99027.91
2022-12-16T19:27:33.177Z,99023.06
2022-12-16T19:30:19.847Z,99022.59
2022-12-16T19:33:07.477Z,99025.44
2022-12-16T19:35:56.925Z,99040.50
2022-12-16T19:39:10.139Z,99046.28
2022-12-16T19:41:56.830Z,99045.28
2022-12-16T19:44:43.235Z,99048.25
2022-12-16T19:47:29.893Z,99046.59
2022-12-16T19:50:27.321Z,99056.03
2022-12-16T19:53:15.259Z,99048.38
2022-12-16T19:56:05.092Z,99059.63
2022-12-16T19:58:52.064Z,99068.03
2022-12-16T20:01:38.923Z,99076.56
2022-12-16T20:04:26.169Z,99077.94
2022-12-16T20:07:12.306Z,99082.56
2022-12-16T20:09:59.941Z,99090.97
2022-12-16T20:12:48.615Z,99097.72
2022-12-16T20:15:35.023Z,99098.22
2022-12-16T20:18:23.730Z,99099.72
2022-12-16T20:21:09.818Z,99106.69
2022-12-16T20:23:59.256Z,99109.63
2022-12-16T20:26:47.335Z,99120.00
2022-12-16T20:29:34.108Z,99123.75
2022-12-16T20:32:20.418Z,99132.41
2022-12-16T20:35:09.090Z,99123.34
2022-12-16T20:37:57.847Z,99120.34
2022-12-16T20:40:44.452Z,99129.09
2022-12-16T20:43:32.642Z,99126.72
2022-12-16T20:46:19.102Z,99134.00
2022-12-16T20:49:05.705Z,99136.47
2022-12-16T20:51:51.749Z,99134.28
2022-12-16T20:54:38.042Z,99141.84
2022-12-16T20:57:24.364Z,99139.34
2022-12-16T21:00:08.423Z,99139.09
2022-12-16T21:02:56.755Z,99143.34
2022-12-16T21:05:42.888Z,99140.94
2022-12-16T21:08:29.067Z,99147.03
2022-12-16T21:11:12.369Z,99147.25
2022-12-16T21:13:58.546Z,99153.63
2022-12-16T21:16:46.423Z,99164.72
2022-12-16T21:19:33.853Z,99172.28
2022-12-16T21:22:20.466Z,99164.13
2022-12-16T21:25:06.663Z,99170.75
2022-12-16T21:27:53.258Z,99166.97
2022-12-16T21:30:43.616Z,99172.88
2022-12-16T21:33:38.762Z,99180.91
2022-12-16T21:36:26.496Z,99183.69
2022-12-16T21:39:12.443Z,99181.50
2022-12-16T21:41:59.175Z,99191.72
2022-12-16T21:44:45.388Z,99190.59
2022-12-16T21:47:31.814Z,99193.84
2022-12-16T21:50:19.626Z,99194.84
2022-12-16T21:53:06.856Z,99198.75
2022-12-16T21:55:53.198Z,99197.84
2022-12-16T21:58:40.557Z,99206.09
2022-12-16T22:01:28.325Z,99220.03
2022-12-16T22:04:14.325Z,99221.41
2022-12-16T22:07:06.517Z,99222.09
2022-12-16T22:09:53.038Z,99226.50
2022-12-16T22:12:43.034Z,99226.50
2022-12-16T22:15:29.816Z,99234.38
2022-12-16T22:18:16.302Z,99229.81
2022-12-16T22:21:17.119Z,99226.19
2022-12-16T22:24:04.726Z,99227.88
2022-12-16T22:26:51.459Z,99233.13
2022-12-16T22:29:40.030Z,99225.91
2022-12-16T22:32:26.583Z,99238.06
2022-12-16T22:35:13.127Z,99240.69
2022-12-16T22:37:59.712Z,99250.19
2022-12-16T22:40:47.536Z,99245.09
2022-12-16T22:43:34.558Z,99257.41
2022-12-16T22:46:22.409Z,99256.44
2022-12-16T22:49:09.050Z,99257.25
2022-12-16T22:51:55.587Z,99255.44
2022-12-16T22:54:43.420Z,99257.78
2022-12-16T22:57:31.679Z,99257.09
2022-12-16T23:00:18.222Z,99256.16
2022-12-16T23:03:04.840Z,99265.66
2022-12-16T23:05:51.265Z,99264.22
2022-12-16T23:08:39.303Z,99266.84
2022-12-16T23:11:25.752Z,99268.19
2022-12-16T23:14:13.885Z,99262.19
2022-12-16T23:17:00.242Z,99266.63
2022-12-16T23:19:46.620Z,99260.53
2022-12-16T23:22:32.868Z,99268.78
2022-12-16T23:25:19.203Z,99265.72
2022-12-16T23:28:05.170Z,99264.63
2022-12-16T23:30:52.865Z,99273.97
2022-12-16T23:33:40.295Z,99268.56
2022-12-16T23:36:27.508Z,99278.69
2022-12-16T23:39:14.260Z,99277.72
2022-12-16T23:42:00.508Z,99274.81
2022-12-16T23:44:48.740Z,99282.53
2022-12-16T23:47:39.884Z,99285.88
2022-12-16T23:50:27.009Z,99287.06
2022-12-16T23:53:21.671Z,99283.56
2022-12-16T23:56:07.869Z,99289.06
2022-12-16T23:58:54.058Z,99301.03
